Fairfield Municipal Airport


Codes: KFWC/
Name: Fairfield Municipal Airport
City: Fairfield
Country: United States
Elevation: 436 ft.

Photos at Fairfield Municipal Airport


   Photos courtesy of SpottingLog. You can add your own sightings and photos by signing up for a free trial today.



No photos found.

Weather at Fairfield Municipal Airport


Time (UTC)DescriptionTempratureWindCloud coverageVisibilityPressureHumidity
21-Feb-2024 03:00Clear Sky7°C9 mph, S0%10000m1023hPa57%
21-Feb-2024 06:00Clear Sky7°C9 mph, S6%10000m1023hPa64%
21-Feb-2024 09:00Few Clouds7°C9 mph, S18%10000m1022hPa73%
21-Feb-2024 12:00Few Clouds6°C9 mph, S21%10000m1021hPa85%
21-Feb-2024 15:00Broken Clouds10°C13 mph, S79%10000m1020hPa79%
21-Feb-2024 18:00Overcast Clouds15°C16 mph, S90%10000m1017hPa62%
21-Feb-2024 21:00Overcast Clouds17°C16 mph, S100%10000m1013hPa65%
22-Feb-2024 00:00Overcast Clouds15°C16 mph, S100%10000m1012hPa80%
22-Feb-2024 03:00Overcast Clouds15°C16 mph, S100%10000m1010hPa83%
22-Feb-2024 06:00Overcast Clouds15°C16 mph, SW100%10000m1009hPa82%
22-Feb-2024 09:00Overcast Clouds14°C18 mph, SW100%10000m1006hPa88%
22-Feb-2024 12:00Light Rain14°C16 mph, SW100%7207m1005hPa93%
22-Feb-2024 15:00Light Rain14°C18 mph, SW100%10000m1004hPa91%
22-Feb-2024 18:00Light Rain14°C13 mph, SW100%10000m1003hPa90%
22-Feb-2024 21:00Light Rain12°C16 mph, N99%10000m1003hPa80%
23-Feb-2024 00:00Broken Clouds10°C9 mph, N70%10000m1006hPa82%
23-Feb-2024 03:00Scattered Clouds9°C7 mph, NW44%10000m1007hPa83%
23-Feb-2024 06:00Broken Clouds8°C9 mph, NW62%10000m1007hPa85%
23-Feb-2024 09:00Scattered Clouds7°C9 mph, NW33%10000m1007hPa82%
23-Feb-2024 12:00Few Clouds5°C9 mph, NW16%10000m1009hPa88%
23-Feb-2024 15:00Clear Sky8°C13 mph, NW0%10000m1011hPa71%
23-Feb-2024 18:00Clear Sky11°C13 mph, NW2%10000m1010hPa50%
23-Feb-2024 21:00Clear Sky12°C13 mph, NW6%10000m1009hPa45%
24-Feb-2024 00:00Clear Sky8°C7 mph, NW8%10000m1010hPa63%
24-Feb-2024 03:00Few Clouds7°C7 mph, W14%10000m1011hPa67%
24-Feb-2024 06:00Scattered Clouds7°C4 mph, NW32%10000m1011hPa70%
24-Feb-2024 09:00Light Rain6°C7 mph, N100%10000m1012hPa85%
24-Feb-2024 12:00Overcast Clouds4°C11 mph, N91%10000m1015hPa87%
24-Feb-2024 15:00Overcast Clouds3°C11 mph, N90%10000m1019hPa82%
24-Feb-2024 18:00Overcast Clouds6°C7 mph, N90%10000m1020hPa62%
24-Feb-2024 21:00Scattered Clouds8°C4 mph, W41%10000m1019hPa52%
25-Feb-2024 00:00Few Clouds5°C7 mph, S22%10000m1019hPa66%
25-Feb-2024 03:00Scattered Clouds4°C7 mph, S28%10000m1019hPa78%
25-Feb-2024 06:00Few Clouds3°C11 mph, S14%10000m1018hPa80%
25-Feb-2024 09:00Clear Sky4°C13 mph, S0%10000m1015hPa82%
25-Feb-2024 12:00Clear Sky5°C16 mph, S0%10000m1014hPa80%
25-Feb-2024 15:00Scattered Clouds10°C18 mph, SW26%10000m1013hPa68%
25-Feb-2024 18:00Scattered Clouds15°C20 mph, SW36%10000m1011hPa58%
25-Feb-2024 21:00Scattered Clouds16°C18 mph, SW32%10000m1010hPa61%
26-Feb-2024 00:00Light Rain13°C13 mph, SW37%10000m1011hPa72%